createdAt,value
2019-02-04T00:01:59.687Z,95232.41
2019-02-04T00:04:30.640Z,95222.20
2019-02-04T00:07:00.566Z,95216.64
2019-02-04T00:09:30.146Z,95227.55
2019-02-04T00:11:59.824Z,95237.34
2019-02-04T00:14:29.465Z,95245.98
2019-02-04T00:16:59.134Z,95241.16
2019-02-04T00:19:28.862Z,95240.11
2019-02-04T00:21:58.496Z,95233.83
2019-02-04T00:24:28.487Z,95233.83
2019-02-04T00:26:58.124Z,95239.68
2019-02-04T00:29:27.806Z,95250.70
2019-02-04T00:31:57.514Z,95243.40
2019-02-04T00:34:27.136Z,95249.57
2019-02-04T00:36:56.771Z,95244.73
2019-02-04T00:39:26.411Z,95255.97
2019-02-04T00:41:56.147Z,95273.05
2019-02-04T00:44:25.848Z,95283.55
2019-02-04T00:46:55.493Z,95289.19
2019-02-04T00:49:25.065Z,95287.36
2019-02-04T00:51:54.736Z,95284.07
2019-02-04T00:54:24.600Z,95280.58
2019-02-04T00:56:54.262Z,95280.78
2019-02-04T00:59:23.921Z,95286.14
2019-02-04T01:01:53.661Z,95294.30
2019-02-04T01:04:23.555Z,95293.25
2019-02-04T01:06:53.492Z,95289.33
2019-02-04T01:09:23.256Z,95283.89
2019-02-04T01:11:53.101Z,95283.89
2019-02-04T01:14:22.871Z,95274.91
2019-02-04T01:17:03.238Z,95286.14
2019-02-04T01:19:25.102Z,95282.35
2019-02-04T01:21:54.797Z,95283.75
2019-02-04T01:24:24.521Z,95285.23
2019-02-04T01:26:54.216Z,95285.86
2019-02-04T01:29:23.851Z,95281.45
2019-02-04T01:31:53.538Z,95289.67
2019-02-04T01:34:23.493Z,95287.52
2019-02-04T01:36:53.175Z,95287.00
2019-02-04T01:39:23.010Z,95289.16
2019-02-04T01:41:52.686Z,95290.72
2019-02-04T01:44:22.433Z,95291.01
2019-02-04T01:46:52.116Z,95309.12
2019-02-04T01:49:21.840Z,95306.34
2019-02-04T01:51:51.535Z,95306.64
2019-02-04T01:54:21.193Z,95302.96
2019-02-04T01:56:50.856Z,95304.59
2019-02-04T01:59:20.561Z,95308.70
2019-02-04T02:01:50.622Z,95306.55
2019-02-04T02:04:20.321Z,95305.73
2019-02-04T02:06:50.104Z,95313.62
2019-02-04T02:09:24.755Z,95307.69
2019-02-04T02:11:54.466Z,95315.62
2019-02-04T02:14:24.393Z,95315.81
2019-02-04T02:16:54.080Z,95322.32
2019-02-04T02:19:23.706Z,95326.95
2019-02-04T02:21:53.398Z,95335.50
2019-02-04T02:24:23.058Z,95338.47
2019-02-04T02:26:52.811Z,95340.33
2019-02-04T02:29:22.439Z,95342.58
2019-02-04T02:31:52.133Z,95344.73
2019-02-04T02:34:21.846Z,95335.69
2019-02-04T02:36:51.499Z,95347.21
2019-02-04T02:39:21.275Z,95346.07
2019-02-04T02:41:51.309Z,95340.72
2019-02-04T02:44:21.113Z,95346.69
2019-02-04T02:46:50.725Z,95338.98
2019-02-04T02:49:20.424Z,95343.29
2019-02-04T02:51:50.104Z,95349.89
2019-02-04T02:54:19.838Z,95353.28
2019-02-04T02:56:49.877Z,95351.22
2019-02-04T02:59:19.579Z,95353.80
2019-02-04T03:01:49.207Z,95358.95
2019-02-04T03:04:19.033Z,95359.87
2019-02-04T03:06:48.634Z,95360.88
2019-02-04T03:09:18.307Z,95367.37
2019-02-04T03:11:47.952Z,95366.04
2019-02-04T03:14:17.645Z,95360.69
2019-02-04T03:16:47.351Z,95358.53
2019-02-04T03:19:16.983Z,95361.50
2019-02-04T03:21:46.754Z,95360.69
2019-02-04T03:24:16.703Z,95356.88
2019-02-04T03:26:46.386Z,95358.63
2019-02-04T03:29:15.971Z,95364.17
2019-02-04T03:31:46.619Z,95364.80
2019-02-04T03:34:16.343Z,95361.41
2019-02-04T03:36:45.989Z,95364.31
2019-02-04T03:39:15.664Z,95369.66
2019-02-04T03:41:45.434Z,95365.33
2019-02-04T03:44:15.201Z,95361.64
2019-02-04T03:46:44.820Z,95370.38
2019-02-04T03:49:14.582Z,95371.91
2019-02-04T03:51:44.543Z,95370.87
2019-02-04T03:54:14.331Z,95375.11
2019-02-04T03:56:44.065Z,95376.52
2019-02-04T03:59:13.859Z,95376.52
2019-02-04T04:01:43.579Z,95363.89
2019-02-04T04:04:13.090Z,95370.68
2019-02-04T04:06:42.829Z,95369.14
2019-02-04T04:09:12.513Z,95364.52
2019-02-04T04:11:42.202Z,95373.68
2019-02-04T04:14:11.883Z,95371.72
2019-02-04T04:16:41.626Z,95365.23
2019-02-04T04:19:11.512Z,95368.23
2019-02-04T04:21:41.262Z,95371.20
2019-02-04T04:24:10.943Z,95367.70
2019-02-04T04:26:40.787Z,95370.09
2019-02-04T04:29:10.425Z,95373.16
2019-02-04T04:31:40.212Z,95370.81
2019-02-04T04:34:10.049Z,95380.17
2019-02-04T04:36:39.728Z,95379.36
2019-02-04T04:39:09.539Z,95382.53
2019-02-04T04:41:39.351Z,95391.17
2019-02-04T04:44:09.063Z,95386.44
2019-02-04T04:46:39.189Z,95376.16
2019-02-04T04:49:08.814Z,95374.30
2019-02-04T04:51:38.508Z,95380.99
2019-02-04T04:54:08.220Z,95389.73
2019-02-04T04:56:37.950Z,95395.38
2019-02-04T04:59:07.636Z,95403.22
2019-02-04T05:01:37.593Z,95407.95
2019-02-04T05:04:07.283Z,95409.61
2019-02-04T05:06:36.895Z,95410.00
2019-02-04T05:09:07.837Z,95418.16
2019-02-04T05:11:37.524Z,95419.89
2019-02-04T05:14:07.338Z,95418.95
2019-02-04T05:16:37.266Z,95414.93
2019-02-04T05:19:07.062Z,95422.98
2019-02-04T05:21:36.668Z,95428.64
2019-02-04T05:24:07.617Z,95420.22
2019-02-04T05:26:37.530Z,95426.61
2019-02-04T05:29:07.172Z,95429.78
2019-02-04T05:31:37.147Z,95435.55
2019-02-04T05:34:06.775Z,95437.61
2019-02-04T05:36:36.843Z,95440.09
2019-02-04T05:39:08.311Z,95443.06
2019-02-04T05:41:38.679Z,95445.54
2019-02-04T05:44:08.373Z,95443.16
2019-02-04T05:46:38.086Z,95435.23
2019-02-04T05:49:07.946Z,95446.45
2019-02-04T05:51:37.693Z,95454.80
2019-02-04T05:54:08.699Z,95448.01
2019-02-04T05:56:38.560Z,95437.51
2019-02-04T05:59:09.550Z,95448.95
2019-02-04T06:01:39.422Z,95455.53
2019-02-04T06:04:10.002Z,95467.45
2019-02-04T06:06:40.980Z,95477.45
2019-02-04T06:09:11.434Z,95479.11
2019-02-04T06:11:41.265Z,95483.58
2019-02-04T06:14:11.664Z,95482.05
2019-02-04T06:16:41.603Z,95479.16
2019-02-04T06:19:11.249Z,95488.67
2019-02-04T06:21:40.967Z,95483.46
2019-02-04T06:24:10.697Z,95481.56
2019-02-04T06:26:40.681Z,95489.37
2019-02-04T06:29:10.403Z,95489.30
2019-02-04T06:31:40.267Z,95496.59
2019-02-04T06:34:10.094Z,95497.83
2019-02-04T06:36:40.623Z,95504.48
2019-02-04T06:39:11.879Z,95504.50
2019-02-04T06:41:41.665Z,95500.09
2019-02-04T06:44:11.125Z,95494.20
2019-02-04T06:46:40.889Z,95495.23
2019-02-04T06:49:12.536Z,95489.77
2019-02-04T06:51:42.241Z,95494.92
2019-02-04T06:54:12.007Z,95500.16
2019-02-04T06:56:41.806Z,95497.30
2019-02-04T06:59:11.575Z,95500.98
2019-02-04T07:01:41.600Z,95497.09
2019-02-04T07:04:11.482Z,95498.13
2019-02-04T07:06:41.249Z,95494.62
2019-02-04T07:09:12.256Z,95501.83
2019-02-04T07:11:41.788Z,95515.73
2019-02-04T07:14:11.490Z,95515.51
2019-02-04T07:16:41.388Z,95523.53
2019-02-04T07:19:11.274Z,95525.39
2019-02-04T07:21:41.064Z,95526.02
2019-02-04T07:24:10.839Z,95527.02
2019-02-04T07:26:40.465Z,95533.33
2019-02-04T07:29:10.280Z,95538.58
2019-02-04T07:31:40.223Z,95524.26
2019-02-04T07:34:09.884Z,95523.73
2019-02-04T07:36:39.898Z,95538.68
2019-02-04T07:39:09.916Z,95540.51
2019-02-04T07:41:39.687Z,95544.42
2019-02-04T07:44:09.352Z,95556.56
2019-02-04T07:46:39.514Z,95556.79
2019-02-04T07:49:09.279Z,95524.15
2019-02-04T07:51:39.081Z,95557.19
2019-02-04T07:54:08.981Z,95558.23
2019-02-04T07:56:38.690Z,95560.91
2019-02-04T07:59:08.534Z,95560.58
2019-02-04T08:01:38.523Z,95568.41
2019-02-04T08:04:08.369Z,95569.53
2019-02-04T08:06:37.986Z,95580.75
2019-02-04T08:09:09.569Z,95591.45
2019-02-04T08:11:39.269Z,95589.53
2019-02-04T08:14:09.254Z,95589.01
2019-02-04T08:16:38.978Z,95589.30
2019-02-04T08:19:08.799Z,95583.66
2019-02-04T08:21:38.506Z,95591.35
2019-02-04T08:24:08.304Z,95602.69
2019-02-04T08:26:38.054Z,95598.48
2019-02-04T08:29:08.136Z,95597.73
2019-02-04T08:31:37.931Z,95595.99
2019-02-04T08:34:07.672Z,95600.83
2019-02-04T08:36:45.978Z,95601.33
2019-02-04T08:39:09.923Z,95592.30
2019-02-04T08:41:39.648Z,95593.30
2019-02-04T08:44:09.330Z,95591.25
2019-02-04T08:46:39.076Z,95585.08
2019-02-04T08:49:08.735Z,95591.25
2019-02-04T08:51:38.392Z,95595.67
2019-02-04T08:54:08.105Z,95589.50
2019-02-04T08:56:37.730Z,95600.01
2019-02-04T08:59:07.444Z,95602.36
2019-02-04T09:01:37.376Z,95604.22
2019-02-04T09:04:07.387Z,95604.86
2019-02-04T09:06:37.170Z,95604.34
2019-02-04T09:09:09.631Z,95602.25
2019-02-04T09:11:39.267Z,95602.48
2019-02-04T09:14:09.199Z,95595.98
2019-02-04T09:16:38.797Z,95596.20
2019-02-04T09:19:08.498Z,95600.73
2019-02-04T09:21:38.132Z,95580.75
2019-02-04T09:24:07.921Z,95586.44
2019-02-04T09:26:37.759Z,95589.70
2019-02-04T09:29:07.650Z,95590.94
2019-02-04T09:31:37.291Z,95587.03
2019-02-04T09:34:06.932Z,95579.63
2019-02-04T09:36:36.671Z,95580.66
2019-02-04T09:39:09.411Z,95579.33
2019-02-04T09:41:39.416Z,95584.98
2019-02-04T09:44:09.458Z,95574.98
2019-02-04T09:46:39.314Z,95575.31
2019-02-04T09:49:09.133Z,95584.05
2019-02-04T09:51:39.036Z,95576.33
2019-02-04T09:54:08.865Z,95590.33
2019-02-04T09:56:38.626Z,95587.53
2019-02-04T09:59:08.466Z,95586.19
2019-02-04T10:01:38.316Z,95581.80
2019-02-04T10:04:08.007Z,95581.80
2019-02-04T10:06:37.801Z,95579.94
2019-02-04T10:09:09.528Z,95579.77
2019-02-04T10:11:39.315Z,95579.52
2019-02-04T10:14:09.100Z,95572.59
2019-02-04T10:16:38.733Z,95570.77
2019-02-04T10:19:08.451Z,95552.83
2019-02-04T10:21:38.143Z,95554.98
2019-02-04T10:24:08.150Z,95551.83
2019-02-04T10:26:38.854Z,95554.20
2019-02-04T10:29:08.516Z,95532.59
2019-02-04T10:31:38.230Z,95531.80
2019-02-04T10:34:07.877Z,95531.80
2019-02-04T10:36:37.539Z,95534.25
2019-02-04T10:39:09.619Z,95530.23
2019-02-04T10:41:39.320Z,95532.62
2019-02-04T10:44:08.954Z,95535.81
2019-02-04T10:46:38.787Z,95533.95
2019-02-04T10:49:08.509Z,95529.13
2019-02-04T10:51:38.553Z,95521.91
2019-02-04T10:54:08.348Z,95508.29
2019-02-04T10:56:38.199Z,95508.72
2019-02-04T10:59:07.965Z,95514.36
2019-02-04T11:01:37.814Z,95516.03
2019-02-04T11:04:07.595Z,95513.05
2019-02-04T11:06:37.378Z,95505.13
2019-02-04T11:09:09.195Z,95507.50
2019-02-04T11:11:39.082Z,95507.44
2019-02-04T11:14:08.829Z,95511.75
2019-02-04T11:16:38.567Z,95508.45
2019-02-04T11:19:08.684Z,95507.44
2019-02-04T11:21:38.464Z,95496.41
2019-02-04T11:24:08.382Z,95501.98
2019-02-04T11:26:38.166Z,95498.27
2019-02-04T11:29:07.847Z,95505.18
2019-02-04T11:31:37.597Z,95504.95
2019-02-04T11:34:07.453Z,95506.69
2019-02-04T11:36:37.405Z,95509.37
2019-02-04T11:39:09.299Z,95506.30
2019-02-04T11:41:39.067Z,95499.89
2019-02-04T11:44:08.756Z,95502.38
2019-02-04T11:46:38.890Z,95505.77
2019-02-04T11:49:08.587Z,95504.23
2019-02-04T11:51:38.210Z,95504.66
2019-02-04T11:54:07.712Z,95505.77
2019-02-04T11:56:37.408Z,95503.00
2019-02-04T11:59:07.196Z,95503.84
2019-02-04T12:01:36.835Z,95497.02
2019-02-04T12:04:06.815Z,95492.81
2019-02-04T12:06:36.605Z,95521.09
2019-02-04T12:09:08.963Z,95514.92
2019-02-04T12:11:38.792Z,95518.24
2019-02-04T12:14:08.831Z,95506.46
2019-02-04T12:16:38.474Z,95511.63
2019-02-04T12:19:08.081Z,95513.55
2019-02-04T12:21:37.800Z,95506.66
2019-02-04T12:24:07.404Z,95503.94
2019-02-04T12:26:37.094Z,95504.70
2019-02-04T12:29:07.080Z,95503.36
2019-02-04T12:31:36.807Z,95503.26
2019-02-04T12:34:06.464Z,95498.92
2019-02-04T12:36:36.309Z,95505.52
2019-02-04T12:39:14.896Z,95507.38
2019-02-04T12:41:44.714Z,95507.86
2019-02-04T12:44:14.377Z,95507.73
2019-02-04T12:46:44.126Z,95506.09
2019-02-04T12:49:13.809Z,95506.20
2019-02-04T12:51:43.441Z,95503.52
2019-02-04T12:54:13.037Z,95510.41
2019-02-04T12:56:42.788Z,95507.86
2019-02-04T12:59:12.347Z,95502.50
2019-02-04T13:01:41.983Z,95499.83
2019-02-04T13:04:11.671Z,95504.53
2019-02-04T13:06:41.529Z,95503.91
2019-02-04T13:09:11.456Z,95503.37
2019-02-04T13:11:41.206Z,95511.41
2019-02-04T13:14:10.910Z,95507.92
2019-02-04T13:16:40.563Z,95502.86
2019-02-04T13:19:10.246Z,95504.33
2019-02-04T13:21:45.478Z,95498.74
2019-02-04T13:24:11.311Z,95494.95
2019-02-04T13:26:41.031Z,95495.86
2019-02-04T13:29:10.736Z,95492.57
2019-02-04T13:31:40.446Z,95491.23
2019-02-04T13:34:10.259Z,95505.24
2019-02-04T13:36:40.084Z,95501.02
2019-02-04T13:39:10.511Z,95504.81
2019-02-04T13:41:40.187Z,95504.42
2019-02-04T13:44:10.006Z,95508.34
2019-02-04T13:46:39.715Z,95510.20
2019-02-04T13:49:09.478Z,95509.06
2019-02-04T13:51:39.588Z,95507.30
2019-02-04T13:54:09.385Z,95502.98
2019-02-04T13:56:39.094Z,95521.12
2019-02-04T13:59:08.846Z,95516.28
2019-02-04T14:01:38.614Z,95517.85
2019-02-04T14:04:08.402Z,95517.63
2019-02-04T14:06:38.153Z,95518.15
2019-02-04T14:09:15.980Z,95513.70
2019-02-04T14:11:45.748Z,95515.95
2019-02-04T14:14:15.679Z,95509.55
2019-02-04T14:16:45.592Z,95504.81
2019-02-04T14:19:15.509Z,95505.11
2019-02-04T14:21:45.339Z,95508.11
2019-02-04T14:24:14.933Z,95497.39
2019-02-04T14:26:44.641Z,95497.83
2019-02-04T14:29:14.351Z,95501.22
2019-02-04T14:31:44.363Z,95502.70
2019-02-04T14:34:13.993Z,95500.61
2019-02-04T14:36:43.862Z,95507.01
2019-02-04T14:39:15.689Z,95509.30
2019-02-04T14:41:45.431Z,95504.75
2019-02-04T14:45:05.301Z,95500.22
2019-02-04T14:47:46.615Z,95495.09
2019-02-04T14:50:56.206Z,95499.30
2019-02-04T14:54:00.340Z,95502.80
2019-02-04T14:56:59.475Z,95500.02
2019-02-04T14:59:36.677Z,95488.06
2019-02-04T15:02:37.904Z,95497.77
2019-02-04T15:05:33.440Z,95496.20
2019-02-04T15:08:39.386Z,95490.59
2019-02-04T15:11:52.133Z,95491.64
2019-02-04T15:14:55.302Z,95489.87
2019-02-04T15:18:16.037Z,95484.72
2019-02-04T15:21:09.378Z,95490.22
2019-02-04T15:24:25.956Z,95479.70
2019-02-04T15:28:01.029Z,95480.13
2019-02-04T15:31:12.354Z,95497.44
2019-02-04T15:33:53.721Z,95499.92
2019-02-04T15:36:42.449Z,95508.48
2019-02-04T15:39:51.295Z,95504.70
2019-02-04T15:43:19.985Z,95505.84
2019-02-04T15:46:10.681Z,95510.55
2019-02-04T15:49:05.893Z,95511.78
2019-02-04T15:51:40.410Z,95511.59
2019-02-04T15:54:10.637Z,95513.16
2019-02-04T15:56:40.272Z,95510.25
2019-02-04T15:59:09.963Z,95521.19
2019-02-04T16:01:39.694Z,95515.54
2019-02-04T16:04:29.201Z,95513.25
2019-02-04T16:06:58.883Z,95523.67
2019-02-04T16:09:28.871Z,95519.03
2019-02-04T16:11:58.595Z,95522.53
2019-02-04T16:14:28.289Z,95523.57
2019-02-04T16:16:58.024Z,95529.13
2019-02-04T16:19:27.708Z,95531.80
2019-02-04T16:21:57.434Z,95537.67
2019-02-04T16:24:27.125Z,95541.59
2019-02-04T16:26:56.855Z,95539.95
2019-02-04T16:29:26.969Z,95536.23
2019-02-04T16:31:56.681Z,95539.14
2019-02-04T16:34:26.621Z,95548.70
2019-02-04T16:36:56.367Z,95554.06
2019-02-04T16:39:26.112Z,95561.47
2019-02-04T16:41:55.903Z,95556.64
2019-02-04T16:44:25.774Z,95562.52
2019-02-04T16:46:55.457Z,95563.85
2019-02-04T16:49:25.173Z,95566.53
2019-02-04T16:51:54.812Z,95569.50
2019-02-04T16:54:24.502Z,95579.91
2019-02-04T16:56:54.322Z,95579.62
2019-02-04T16:59:24.217Z,95587.23
2019-02-04T17:01:53.746Z,95580.73
2019-02-04T17:04:23.460Z,95591.44
2019-02-04T17:06:53.186Z,95587.96
2019-02-04T17:09:22.960Z,95587.22
2019-02-04T17:11:52.692Z,95586.81
2019-02-04T17:14:22.193Z,95595.05
2019-02-04T17:16:51.808Z,95601.10
2019-02-04T17:19:21.793Z,95597.80
2019-02-04T17:21:51.487Z,95597.89
2019-02-04T17:24:21.219Z,95601.32
2019-02-04T17:26:50.841Z,95607.47
2019-02-04T17:29:20.491Z,95614.27
2019-02-04T17:31:50.180Z,95612.80
2019-02-04T17:34:19.963Z,95618.07
2019-02-04T17:36:49.585Z,95622.19
2019-02-04T17:39:19.209Z,95624.73
2019-02-04T17:41:49.207Z,95628.78
2019-02-04T17:44:18.822Z,95624.14
2019-02-04T17:46:48.618Z,95628.36
2019-02-04T17:49:18.279Z,95625.48
2019-02-04T17:51:48.070Z,95636.79
2019-02-04T17:54:17.860Z,95629.17
2019-02-04T17:56:47.772Z,95622.31
2019-02-04T17:59:17.534Z,95628.78
2019-02-04T18:01:47.140Z,95629.39
2019-02-04T18:04:16.720Z,95625.92
2019-02-04T18:06:46.520Z,95633.52
2019-02-04T18:09:16.023Z,95638.38
2019-02-04T18:11:45.732Z,95641.97
2019-02-04T18:14:15.351Z,95642.30
2019-02-04T18:16:45.049Z,95657.02
2019-02-04T18:19:14.833Z,95661.22
2019-02-04T18:21:44.487Z,95657.72
2019-02-04T18:24:14.685Z,95671.86
2019-02-04T18:26:44.396Z,95667.31
2019-02-04T18:29:14.104Z,95666.69
2019-02-04T18:31:43.765Z,95673.20
2019-02-04T18:34:13.526Z,95665.16
2019-02-04T18:36:43.219Z,95668.44
2019-02-04T18:39:13.165Z,95667.84
2019-02-04T18:41:44.227Z,95670.52
2019-02-04T18:44:13.852Z,95664.02
2019-02-04T18:46:43.879Z,95663.91
2019-02-04T18:49:13.668Z,95674.61
2019-02-04T18:51:43.375Z,95669.89
2019-02-04T18:54:13.155Z,95674.92
2019-02-04T18:56:42.886Z,95676.26
2019-02-04T18:59:12.592Z,95683.38
2019-02-04T19:01:42.311Z,95683.98
2019-02-04T19:04:15.545Z,95678.95
2019-02-04T19:06:47.735Z,95681.83
2019-02-04T19:09:15.868Z,95679.04
2019-02-04T19:11:45.772Z,95681.62
2019-02-04T19:14:15.539Z,95682.55
2019-02-04T19:16:45.522Z,95683.89
2019-02-04T19:19:15.461Z,95684.30
2019-02-04T19:21:45.313Z,95688.54
2019-02-04T19:24:15.180Z,95685.04
2019-02-04T19:26:44.946Z,95672.36
2019-02-04T19:29:14.644Z,95674.42
2019-02-04T19:31:44.496Z,95671.44
2019-02-04T19:34:14.183Z,95679.48
2019-02-04T19:36:44.021Z,95674.94
2019-02-04T19:39:13.705Z,95680.30
2019-02-04T19:41:43.987Z,95680.92
2019-02-04T19:44:14.113Z,95680.40
2019-02-04T19:46:44.089Z,95679.06
2019-02-04T19:49:13.697Z,95675.25
2019-02-04T19:51:43.382Z,95670.81
2019-02-04T19:54:21.297Z,95674.84
2019-02-04T19:56:44.581Z,95677.00
2019-02-04T19:59:14.184Z,95678.23
2019-02-04T20:01:43.886Z,95681.02
2019-02-04T20:04:13.826Z,95680.50
2019-02-04T20:06:43.481Z,95679.98
2019-02-04T20:09:13.226Z,95684.00
2019-02-04T20:11:42.932Z,95683.89
2019-02-04T20:14:12.621Z,95685.34
2019-02-04T20:16:42.257Z,95686.67
2019-02-04T20:19:12.080Z,95691.84
2019-02-04T20:21:41.743Z,95692.97
2019-02-04T20:24:11.466Z,95692.56
2019-02-04T20:26:41.174Z,95693.91
2019-02-04T20:29:10.703Z,95693.28
2019-02-04T20:31:40.512Z,95701.52
2019-02-04T20:34:10.196Z,95694.20
2019-02-04T20:36:39.907Z,95699.75
2019-02-04T20:39:10.614Z,95697.82
2019-02-04T20:41:40.502Z,95698.44
2019-02-04T20:44:10.164Z,95704.80
2019-02-04T20:46:39.963Z,95697.92
2019-02-04T20:49:09.607Z,95697.70
2019-02-04T20:51:39.245Z,95706.26
2019-02-04T20:54:19.240Z,95697.92
2019-02-04T20:56:40.298Z,95692.05
2019-02-04T20:59:10.287Z,95652.61
2019-02-04T21:01:40.048Z,95685.55
2019-02-04T21:04:09.700Z,95697.08
2019-02-04T21:06:39.347Z,95698.64
2019-02-04T21:09:10.190Z,95698.31
2019-02-04T21:11:39.975Z,95694.30
2019-02-04T21:14:09.600Z,95700.06
2019-02-04T21:16:39.226Z,95698.72
2019-02-04T21:19:08.916Z,95706.66
2019-02-04T21:21:38.666Z,95703.07
2019-02-04T21:24:08.336Z,95701.41
2019-02-04T21:26:38.027Z,95700.39
2019-02-04T21:29:07.777Z,95699.05
2019-02-04T21:31:37.446Z,95700.91
2019-02-04T21:34:07.174Z,95700.39
2019-02-04T21:36:36.786Z,95701.92
2019-02-04T21:39:07.887Z,95704.08
2019-02-04T21:41:37.861Z,95700.48
2019-02-04T21:44:07.773Z,95702.34
2019-02-04T21:46:37.386Z,95701.52
2019-02-04T21:49:09.732Z,95706.58
2019-02-04T21:51:39.445Z,95707.91
2019-02-04T21:54:09.085Z,95710.27
2019-02-04T21:56:38.767Z,95713.98
2019-02-04T21:59:08.382Z,95711.83
2019-02-04T22:01:38.078Z,95706.99
2019-02-04T22:04:07.704Z,95708.33
2019-02-04T22:06:37.401Z,95711.01
2019-02-04T22:09:09.432Z,95716.55
2019-02-04T22:11:39.178Z,95713.36
2019-02-04T22:14:09.307Z,95709.04
2019-02-04T22:16:38.935Z,95709.86
2019-02-04T22:19:08.722Z,95706.66
2019-02-04T22:21:38.427Z,95706.88
2019-02-04T22:24:08.340Z,95709.56
2019-02-04T22:26:38.006Z,95710.05
2019-02-04T22:29:08.095Z,95721.39
2019-02-04T22:31:37.708Z,95719.75
2019-02-04T22:34:07.509Z,95715.41
2019-02-04T22:36:37.125Z,95718.08
2019-02-04T22:39:09.013Z,95722.09
2019-02-04T22:41:38.928Z,95727.97
2019-02-04T22:44:08.660Z,95725.70
2019-02-04T22:46:38.268Z,95725.52
2019-02-04T22:49:08.071Z,95732.21
2019-02-04T22:51:37.698Z,95730.54
2019-02-04T22:54:08.867Z,95725.19
2019-02-04T22:56:38.610Z,95722.51
2019-02-04T22:59:08.349Z,95723.55
2019-02-04T23:01:45.020Z,95724.89
2019-02-04T23:04:14.948Z,95732.63
2019-02-04T23:06:44.950Z,95736.30
2019-02-04T23:09:14.667Z,95740.32
2019-02-04T23:11:44.471Z,95738.69
2019-02-04T23:14:14.255Z,95730.95
2019-02-04T23:16:43.992Z,95725.48
2019-02-04T23:19:13.578Z,95727.98
2019-02-04T23:21:43.251Z,95729.31
2019-02-04T23:24:12.909Z,95727.98
2019-02-04T23:26:42.576Z,95718.80
2019-02-04T23:29:12.298Z,95715.11
2019-02-04T23:31:42.004Z,95715.41
2019-02-04T23:34:11.955Z,95714.30
2019-02-04T23:36:41.732Z,95711.39
2019-02-04T23:39:11.499Z,95705.94
2019-02-04T23:41:41.144Z,95698.61
2019-02-04T23:44:10.868Z,95704.30
2019-02-04T23:46:40.496Z,95691.21
2019-02-04T23:49:10.493Z,95690.91
2019-02-04T23:51:40.139Z,95694.30
2019-02-04T23:54:09.806Z,95698.02
2019-02-04T23:56:39.523Z,95703.89
2019-02-04T23:59:09.230Z,95709.02
